Time;durP1;ratioP1;P1;durP2;ratioP2;P2;SDS_P1;SDS_P2;PMS_P1;PMS_P2;Temp;Humidity;BMP_temperature;BMP_pressure;BME280_temperature;BME280_humidity;BME280_pressure;Samples;Min_cycle;Max_cycle;Signal;HPM_P1;HPM_P2
2023/10/15 00:00:12;;;;;;;15.17;8.30;;;;;;;;;;5058953;27;88614;-57
2023/10/15 00:02:42;;;;;;;15.03;9.57;;;;;;;;;;5057180;27;89215;-57
2023/10/15 00:05:12;;;;;;;16.57;9.37;;;;;;;;;;5055583;27;88180;-57
2023/10/15 00:07:40;;;;;;;16.10;9.73;;;;;;;;;;5053412;27;88139;-57
2023/10/15 00:10:11;;;;;;;15.10;10.13;;;;;;;;;;5048967;27;87508;-57
2023/10/15 00:12:41;;;;;;;16.73;10.70;;;;;;;;;;5043932;27;88774;-57
2023/10/15 00:15:14;;;;;;;12.80;8.40;;;;;;;;;;5047719;27;88961;-57
2023/10/15 00:17:43;;;;;;;13.30;9.40;;;;;;;;;;5046115;27;88564;-57
2023/10/15 00:20:16;;;;;;;16.30;9.60;;;;;;;;;;5051480;27;89108;-57
2023/10/15 00:22:44;;;;;;;17.07;10.33;;;;;;;;;;5048804;27;88796;-57
2023/10/15 00:25:14;;;;;;;14.87;10.43;;;;;;;;;;5049333;27;88228;-57
2023/10/15 00:27:44;;;;;;;16.73;11.17;;;;;;;;;;5048808;27;89532;-57
2023/10/15 00:30:19;;;;;;;18.00;11.03;;;;;;;;;;5049150;27;88112;-57
2023/10/15 00:32:49;;;;;;;17.10;10.43;;;;;;;;;;5050721;27;88813;-57
2023/10/15 00:35:19;;;;;;;17.73;10.23;;;;;;;;;;5051516;27;87750;-57
2023/10/15 00:37:54;;;;;;;14.43;10.10;;;;;;;;;;5057634;27;88484;-57
2023/10/15 00:40:23;;;;;;;13.67;10.07;;;;;;;;;;5055469;27;88854;-57
2023/10/15 00:42:53;;;;;;;13.63;10.00;;;;;;;;;;5057121;27;89881;-57
2023/10/15 00:45:22;;;;;;;15.23;10.20;;;;;;;;;;5056277;27;88223;-57
2023/10/15 00:48:00;;;;;;;16.07;10.23;;;;;;;;;;5057047;27;89636;-57
2023/10/15 00:50:31;;;;;;;20.77;12.10;;;;;;;;;;5058056;27;89272;-57
2023/10/15 00:52:59;;;;;;;16.27;9.40;;;;;;;;;;5053281;27;88027;-57
2023/10/15 00:55:30;;;;;;;15.70;9.67;;;;;;;;;;5056763;27;87508;-57
2023/10/15 00:58:05;;;;;;;16.57;9.73;;;;;;;;;;5049759;27;89618;-57
2023/10/15 01:00:47;;;;;;;18.07;10.50;;;;;;;;;;5058556;27;89240;-57
2023/10/15 01:03:17;;;;;;;14.73;9.60;;;;;;;;;;5052093;27;88707;-57
2023/10/15 01:05:53;;;;;;;15.03;9.77;;;;;;;;;;5052101;27;88065;-57
2023/10/15 01:08:34;;;;;;;11.60;9.03;;;;;;;;;;5052585;27;89858;-57
2023/10/15 01:11:09;;;;;;;15.87;9.70;;;;;;;;;;5048669;27;89036;-57
2023/10/15 01:13:40;;;;;;;16.50;10.83;;;;;;;;;;5047449;27;87777;-57
2023/10/15 01:16:09;;;;;;;18.13;10.07;;;;;;;;;;5052341;27;87689;-57
2023/10/15 01:18:38;;;;;;;15.13;9.77;;;;;;;;;;5050844;27;89688;-57
2023/10/15 01:21:09;;;;;;;14.87;8.80;;;;;;;;;;5050111;27;88670;-57
2023/10/15 01:23:58;;;;;;;17.07;8.43;;;;;;;;;;5045815;27;88960;-57
2023/10/15 01:26:34;;;;;;;14.37;9.27;;;;;;;;;;5053180;27;87749;-57
2023/10/15 01:29:05;;;;;;;16.23;10.37;;;;;;;;;;5049778;27;89495;-57
2023/10/15 01:31:40;;;;;;;17.20;10.10;;;;;;;;;;5051394;27;88887;-57
2023/10/15 01:34:10;;;;;;;24.07;12.10;;;;;;;;;;5048165;27;88798;-57
2023/10/15 01:36:39;;;;;;;15.07;9.83;;;;;;;;;;5048868;27;87662;-57
2023/10/15 01:39:12;;;;;;;17.23;10.07;;;;;;;;;;5052968;27;88545;-57
2023/10/15 01:41:42;;;;;;;22.47;11.50;;;;;;;;;;5052432;27;89305;-57
2023/10/15 01:44:11;;;;;;;18.97;12.20;;;;;;;;;;5047460;27;89261;-57
2023/10/15 01:46:47;;;;;;;16.13;11.23;;;;;;;;;;5053410;27;90380;-57
2023/10/15 01:49:31;;;;;;;18.17;10.10;;;;;;;;;;5053397;27;88744;-57
2023/10/15 01:52:05;;;;;;;16.23;11.53;;;;;;;;;;5054674;27;89120;-57
2023/10/15 01:54:34;;;;;;;18.17;11.67;;;;;;;;;;5056202;27;88950;-58
2023/10/15 01:57:06;;;;;;;18.20;10.70;;;;;;;;;;5056394;27;88008;-57
2023/10/15 01:59:45;;;;;;;19.90;11.00;;;;;;;;;;5057360;27;88418;-57
2023/10/15 02:02:15;;;;;;;17.93;11.40;;;;;;;;;;5057659;27;88053;-57
2023/10/15 02:04:45;;;;;;;19.03;10.07;;;;;;;;;;5056952;27;88953;-56
2023/10/15 02:07:16;;;;;;;16.50;11.60;;;;;;;;;;5057113;27;87369;-56
2023/10/15 02:09:45;;;;;;;14.67;10.50;;;;;;;;;;5057412;27;88476;-57
2023/10/15 02:12:17;;;;;;;14.73;10.27;;;;;;;;;;5057363;27;87981;-57
2023/10/15 02:14:47;;;;;;;14.77;11.07;;;;;;;;;;5056649;27;89116;-57
2023/10/15 02:17:18;;;;;;;17.30;11.13;;;;;;;;;;5056172;27;87860;-57
2023/10/15 02:19:48;;;;;;;20.97;11.40;;;;;;;;;;5060117;27;88505;-57
2023/10/15 02:22:17;;;;;;;12.23;8.80;;;;;;;;;;5056078;27;89979;-57
2023/10/15 02:24:47;;;;;;;20.07;10.43;;;;;;;;;;5060740;27;88741;-57
2023/10/15 02:27:23;;;;;;;20.33;10.13;;;;;;;;;;5058557;27;87844;-57
2023/10/15 02:29:52;;;;;;;18.90;10.47;;;;;;;;;;5058211;27;89078;-57
2023/10/15 02:32:30;;;;;;;16.57;10.47;;;;;;;;;;5058182;27;88059;-57
2023/10/15 02:34:59;;;;;;;14.33;9.77;;;;;;;;;;5057942;27;87748;-57
2023/10/15 02:37:28;;;;;;;16.50;9.57;;;;;;;;;;5056388;27;87672;-57
2023/10/15 02:39:58;;;;;;;16.57;10.37;;;;;;;;;;5059077;27;89806;-57
2023/10/15 02:42:34;;;;;;;15.10;8.83;;;;;;;;;;5058164;27;88064;-57
2023/10/15 02:45:06;;;;;;;14.20;9.30;;;;;;;;;;5058733;27;87752;-57
2023/10/15 02:47:42;;;;;;;14.90;9.03;;;;;;;;;;5058884;27;87980;-57
2023/10/15 02:50:16;;;;;;;14.53;9.67;;;;;;;;;;5061675;27;89755;-57
2023/10/15 02:52:45;;;;;;;14.03;9.27;;;;;;;;;;5060524;27;89091;-57
2023/10/15 02:55:26;;;;;;;11.40;7.03;;;;;;;;;;5061295;27;90040;-57
2023/10/15 02:58:02;;;;;;;15.50;7.93;;;;;;;;;;5062184;27;87665;-57
2023/10/15 03:00:32;;;;;;;12.90;7.70;;;;;;;;;;5058776;27;89424;-57
2023/10/15 03:03:07;;;;;;;12.90;8.77;;;;;;;;;;5061543;27;89137;-57
2023/10/15 03:05:40;;;;;;;14.03;8.20;;;;;;;;;;5061759;27;87302;-57
2023/10/15 03:08:16;;;;;;;13.30;8.60;;;;;;;;;;5062193;27;87537;-57
2023/10/15 03:10:55;;;;;;;13.33;9.40;;;;;;;;;;5062070;27;89606;-57
2023/10/15 03:13:26;;;;;;;11.93;7.63;;;;;;;;;;5061523;27;88309;-57
2023/10/15 03:15:57;;;;;;;12.53;7.33;;;;;;;;;;5062156;27;87683;-56
2023/10/15 03:18:28;;;;;;;14.17;8.10;;;;;;;;;;5059955;27;87505;-56
2023/10/15 03:21:09;;;;;;;13.60;7.83;;;;;;;;;;5061874;27;89604;-56
2023/10/15 03:23:39;;;;;;;15.40;8.77;;;;;;;;;;5061654;27;89077;-56
2023/10/15 03:26:09;;;;;;;11.33;7.57;;;;;;;;;;5061651;27;87644;-56
2023/10/15 03:28:44;;;;;;;10.63;7.43;;;;;;;;;;5062129;27;87602;-56
2023/10/15 03:31:15;;;;;;;11.10;7.20;;;;;;;;;;5059516;27;89591;-56
2023/10/15 03:34:03;;;;;;;11.80;7.30;;;;;;;;;;5061610;27;89157;-56
2023/10/15 03:36:44;;;;;;;11.97;7.13;;;;;;;;;;5061026;27;88943;-56
2023/10/15 03:39:15;;;;;;;11.23;7.40;;;;;;;;;;5060995;27;87885;-56
2023/10/15 03:41:49;;;;;;;15.13;6.87;;;;;;;;;;5061845;27;87963;-56
2023/10/15 03:44:27;;;;;;;11.77;7.50;;;;;;;;;;5061413;27;88986;-57
2023/10/15 03:47:03;;;;;;;13.80;7.57;;;;;;;;;;5061439;27;88006;-57
2023/10/15 03:49:32;;;;;;;10.10;6.60;;;;;;;;;;5060381;27;88680;-57
2023/10/15 03:52:07;;;;;;;14.83;7.30;;;;;;;;;;5061417;27;89709;-57
2023/10/15 03:54:37;;;;;;;7.97;5.67;;;;;;;;;;5057402;27;88814;-57
2023/10/15 03:57:07;;;;;;;10.27;6.37;;;;;;;;;;5059026;27;87723;-57
2023/10/15 03:59:42;;;;;;;9.17;4.63;;;;;;;;;;5061046;27;87756;-57
2023/10/15 04:02:22;;;;;;;8.53;5.83;;;;;;;;;;5059593;27;88515;-57
2023/10/15 04:05:00;;;;;;;8.10;6.20;;;;;;;;;;5060224;27;89987;-57
2023/10/15 04:07:30;;;;;;;8.40;6.00;;;;;;;;;;5061076;27;89823;-57
2023/10/15 04:10:03;;;;;;;8.63;5.23;;;;;;;;;;5061332;27;87613;-57
2023/10/15 04:12:34;;;;;;;8.20;4.73;;;;;;;;;;5058713;27;89608;-57
2023/10/15 04:15:12;;;;;;;7.60;5.03;;;;;;;;;;5060819;27;88235;-57
2023/10/15 04:17:41;;;;;;;7.87;5.80;;;;;;;;;;5060963;27;88813;-57
2023/10/15 04:20:10;;;;;;;8.47;5.27;;;;;;;;;;5061213;27;87966;-57
2023/10/15 04:22:44;;;;;;;8.27;5.43;;;;;;;;;;5058605;27;89476;-57
2023/10/15 04:25:23;;;;;;;7.53;4.57;;;;;;;;;;5061227;27;88232;-57
2023/10/15 04:27:51;;;;;;;7.40;4.27;;;;;;;;;;5060897;27;88867;-56
2023/10/15 04:30:22;;;;;;;8.87;4.77;;;;;;;;;;5061328;27;87973;-56
2023/10/15 04:32:51;;;;;;;9.27;4.87;;;;;;;;;;5061604;27;89349;-56
2023/10/15 04:35:25;;;;;;;8.63;4.93;;;;;;;;;;5047003;27;89087;-56
2023/10/15 04:37:57;;;;;;;6.53;4.43;;;;;;;;;;5061588;27;87764;-56
2023/10/15 04:40:25;;;;;;;8.40;5.00;;;;;;;;;;5062090;27;87510;-56
2023/10/15 04:42:59;;;;;;;9.80;5.00;;;;;;;;;;5061944;27;88647;-56
2023/10/15 04:45:42;;;;;;;5.83;4.03;;;;;;;;;;5061198;27;87379;-56
2023/10/15 04:48:15;;;;;;;6.03;4.27;;;;;;;;;;5061358;27;88937;-57
2023/10/15 04:50:45;;;;;;;8.27;4.23;;;;;;;;;;5061052;27;88373;-57
2023/10/15 04:53:17;;;;;;;7.17;3.37;;;;;;;;;;5061696;27;88421;-57
2023/10/15 04:55:46;;;;;;;4.10;3.70;;;;;;;;;;5061127;27;89890;-58
2023/10/15 04:58:14;;;;;;;7.87;4.13;;;;;;;;;;5060763;27;88760;-57
2023/10/15 05:00:44;;;;;;;6.67;3.97;;;;;;;;;;5061343;27;87617;-57
2023/10/15 05:03:14;;;;;;;6.80;3.47;;;;;;;;;;5061213;27;90476;-56
2023/10/15 05:05:43;;;;;;;5.97;4.20;;;;;;;;;;5061181;27;89459;-57
2023/10/15 05:08:11;;;;;;;8.73;4.30;;;;;;;;;;5061689;27;87932;-56
2023/10/15 05:10:44;;;;;;;4.53;3.00;;;;;;;;;;5061472;27;87731;-56
2023/10/15 05:13:14;;;;;;;4.17;3.50;;;;;;;;;;5061245;27;88543;-56
2023/10/15 05:15:43;;;;;;;5.47;3.30;;;;;;;;;;5059600;27;88333;-56
2023/10/15 05:18:12;;;;;;;7.57;3.97;;;;;;;;;;5060031;27;88930;-56
2023/10/15 05:20:40;;;;;;;8.70;3.93;;;;;;;;;;5060036;27;89335;-56
2023/10/15 05:23:09;;;;;;;4.83;3.30;;;;;;;;;;5057937;27;89675;-57
2023/10/15 05:25:39;;;;;;;6.03;3.80;;;;;;;;;;5059930;27;88108;-57
2023/10/15 05:28:08;;;;;;;3.93;3.33;;;;;;;;;;5060124;27;89007;-56
2023/10/15 05:30:38;;;;;;;5.23;3.40;;;;;;;;;;5060384;27;87736;-56
2023/10/15 05:33:09;;;;;;;5.53;3.33;;;;;;;;;;5060316;27;89695;-57
2023/10/15 05:35:39;;;;;;;3.57;2.90;;;;;;;;;;5060184;27;88956;-57
2023/10/15 05:38:08;;;;;;;5.63;2.87;;;;;;;;;;5060277;27;90395;-57
2023/10/15 05:40:38;;;;;;;6.67;3.73;;;;;;;;;;5060345;27;87437;-57
2023/10/15 05:43:07;;;;;;;14.33;4.03;;;;;;;;;;5059889;27;88366;-57
2023/10/15 05:45:35;;;;;;;4.43;3.90;;;;;;;;;;5059650;27;90023;-57
2023/10/15 05:48:04;;;;;;;5.53;3.90;;;;;;;;;;5059712;27;89833;-57
2023/10/15 05:50:33;;;;;;;6.43;3.20;;;;;;;;;;5059160;27;88067;-57
2023/10/15 05:53:02;;;;;;;4.43;3.50;;;;;;;;;;5058533;27;87791;-57
2023/10/15 05:55:32;;;;;;;8.03;3.60;;;;;;;;;;5057466;27;89091;-56
2023/10/15 05:58:00;;;;;;;6.43;4.30;;;;;;;;;;5059633;27;88023;-57
2023/10/15 06:00:29;;;;;;;6.50;4.33;;;;;;;;;;5058327;27;88496;-56
2023/10/15 06:02:58;;;;;;;9.27;4.33;;;;;;;;;;5057292;27;88498;-58
2023/10/15 06:05:28;;;;;;;6.33;4.33;;;;;;;;;;5058583;27;88086;-57
2023/10/15 06:07:58;;;;;;;5.47;4.27;;;;;;;;;;5059544;27;88794;-56
2023/10/15 06:10:29;;;;;;;5.10;3.50;;;;;;;;;;5059869;27;87948;-57
2023/10/15 06:12:58;;;;;;;5.73;4.10;;;;;;;;;;5057352;27;89673;-55
2023/10/15 06:15:26;;;;;;;7.17;4.60;;;;;;;;;;5059357;27;89254;-56
2023/10/15 06:17:54;;;;;;;4.83;3.67;;;;;;;;;;5059037;27;87459;-57
2023/10/15 06:20:24;;;;;;;12.03;5.03;;;;;;;;;;5060136;27;87695;-58
2023/10/15 06:22:55;;;;;;;7.23;4.27;;;;;;;;;;5060013;27;89638;-57
2023/10/15 06:25:25;;;;;;;6.77;3.90;;;;;;;;;;5063569;27;88077;-57
2023/10/15 06:27:54;;;;;;;6.43;3.70;;;;;;;;;;5064152;27;88959;-57
2023/10/15 06:30:22;;;;;;;7.10;4.07;;;;;;;;;;5063857;27;88862;-57
2023/10/15 06:32:53;;;;;;;7.63;4.00;;;;;;;;;;5059071;27;88442;-57
2023/10/15 06:35:22;;;;;;;5.97;3.27;;;;;;;;;;5061627;27;90152;-58
2023/10/15 06:37:51;;;;;;;7.00;5.00;;;;;;;;;;5063433;27;87445;-57
2023/10/15 06:40:21;;;;;;;8.70;4.43;;;;;;;;;;5064166;27;87613;-58
2023/10/15 06:42:53;;;;;;;7.10;4.10;;;;;;;;;;5063032;27;89811;-57
2023/10/15 06:45:21;;;;;;;6.87;4.43;;;;;;;;;;5059650;27;89702;-58
2023/10/15 06:47:52;;;;;;;5.77;4.10;;;;;;;;;;5060488;27;87698;-58
2023/10/15 06:50:22;;;;;;;5.40;4.07;;;;;;;;;;5059265;27;87597;-57
2023/10/15 06:52:54;;;;;;;7.50;3.83;;;;;;;;;;5060434;27;89598;-57
2023/10/15 06:55:23;;;;;;;6.67;4.20;;;;;;;;;;5059834;27;88074;-58
2023/10/15 06:57:54;;;;;;;7.23;4.77;;;;;;;;;;5059706;27;89142;-57
2023/10/15 07:00:22;;;;;;;6.67;5.47;;;;;;;;;;5058859;27;88071;-57
2023/10/15 07:02:51;;;;;;;7.13;3.77;;;;;;;;;;5058688;27;89657;-57
2023/10/15 07:05:20;;;;;;;7.73;5.00;;;;;;;;;;5059505;27;88067;-57
2023/10/15 07:07:49;;;;;;;6.33;4.40;;;;;;;;;;5060324;27;89890;-57
2023/10/15 07:10:17;;;;;;;9.10;4.47;;;;;;;;;;5057807;27;88087;-57
2023/10/15 07:12:46;;;;;;;5.47;4.53;;;;;;;;;;5059527;27;88583;-57
2023/10/15 07:15:16;;;;;;;9.10;5.00;;;;;;;;;;5059009;27;88069;-57
2023/10/15 07:17:45;;;;;;;7.23;5.00;;;;;;;;;;5059221;27;88046;-57
2023/10/15 07:20:15;;;;;;;7.00;5.50;;;;;;;;;;5059002;27;88112;-57
2023/10/15 07:22:44;;;;;;;11.03;5.60;;;;;;;;;;5060090;27;88882;-57
2023/10/15 07:25:13;;;;;;;11.07;5.50;;;;;;;;;;5054877;27;89591;-57
2023/10/15 07:27:45;;;;;;;9.97;6.20;;;;;;;;;;5059461;27;90401;-57
2023/10/15 07:30:15;;;;;;;8.43;5.20;;;;;;;;;;5058555;27;89049;-57
2023/10/15 07:32:44;;;;;;;10.07;6.30;;;;;;;;;;5059367;27;87508;-57
2023/10/15 07:35:13;;;;;;;8.07;5.90;;;;;;;;;;5055511;27;87734;-58
2023/10/15 07:37:42;;;;;;;10.27;6.30;;;;;;;;;;5059489;27;87949;-54
2023/10/15 07:40:16;;;;;;;6.60;5.10;;;;;;;;;;5059027;27;88286;-61
2023/10/15 07:42:45;;;;;;;9.37;5.17;;;;;;;;;;5059073;27;88601;-58
2023/10/15 07:45:16;;;;;;;8.20;5.27;;;;;;;;;;5057604;27;88982;-62
2023/10/15 07:47:44;;;;;;;9.43;5.33;;;;;;;;;;5059574;27;88685;-64
2023/10/15 07:50:14;;;;;;;4.87;4.00;;;;;;;;;;5058778;27;88030;-58
2023/10/15 07:52:43;;;;;;;9.43;4.37;;;;;;;;;;5059647;27;89724;-58
2023/10/15 07:55:11;;;;;;;8.20;4.10;;;;;;;;;;5056113;27;88752;-54
2023/10/15 07:57:39;;;;;;;6.33;4.40;;;;;;;;;;5059732;27;90406;-60
2023/10/15 08:00:09;;;;;;;5.30;4.00;;;;;;;;;;5059579;27;87747;-59
2023/10/15 08:02:39;;;;;;;6.87;3.97;;;;;;;;;;5059122;27;89694;-57
2023/10/15 08:05:08;;;;;;;7.10;4.30;;;;;;;;;;5059134;27;88072;-60
2023/10/15 08:07:38;;;;;;;7.77;3.97;;;;;;;;;;5053177;27;88847;-60
2023/10/15 08:10:06;;;;;;;5.70;3.10;;;;;;;;;;5058899;27;89439;-60
2023/10/15 08:12:35;;;;;;;6.87;4.23;;;;;;;;;;5059084;27;89567;-57
2023/10/15 08:15:03;;;;;;;4.77;3.17;;;;;;;;;;5055737;27;90188;-61
2023/10/15 08:17:31;;;;;;;7.30;3.50;;;;;;;;;;5059785;27;89687;-59
2023/10/15 08:20:03;;;;;;;6.80;2.93;;;;;;;;;;5059433;27;87685;-59
2023/10/15 08:22:32;;;;;;;6.30;3.77;;;;;;;;;;5059419;27;89188;-59
2023/10/15 08:25:00;;;;;;;3.57;2.80;;;;;;;;;;5058821;27;89253;-59
2023/10/15 08:27:29;;;;;;;5.87;3.10;;;;;;;;;;5059116;27;89017;-59
2023/10/15 08:29:57;;;;;;;3.50;2.60;;;;;;;;;;5059419;27;88031;-59
2023/10/15 08:32:26;;;;;;;3.33;2.33;;;;;;;;;;5058947;27;89628;-59
2023/10/15 08:34:55;;;;;;;4.10;2.53;;;;;;;;;;5059354;27;89294;-59
2023/10/15 08:37:25;;;;;;;3.00;2.40;;;;;;;;;;5059252;27;88621;-60
2023/10/15 08:39:53;;;;;;;4.17;2.50;;;;;;;;;;5058280;27;88093;-59
2023/10/15 08:42:22;;;;;;;4.57;2.00;;;;;;;;;;5053539;27;89583;-60
2023/10/15 08:44:51;;;;;;;5.70;2.40;;;;;;;;;;5058396;27;88079;-59
2023/10/15 08:47:19;;;;;;;2.97;2.03;;;;;;;;;;5057405;27;89034;-60
2023/10/15 08:49:48;;;;;;;2.60;1.77;;;;;;;;;;5058488;27;87672;-59
2023/10/15 08:52:16;;;;;;;2.50;1.77;;;;;;;;;;5055541;27;88714;-59
2023/10/15 08:54:46;;;;;;;2.77;1.70;;;;;;;;;;5057882;27;88853;-60
2023/10/15 08:57:15;;;;;;;3.00;1.90;;;;;;;;;;5057969;27;88900;-60
2023/10/15 08:59:44;;;;;;;9.37;2.60;;;;;;;;;;5058439;27;87620;-60
2023/10/15 09:02:15;;;;;;;2.57;2.37;;;;;;;;;;5058206;27;89568;-60
2023/10/15 09:04:45;;;;;;;3.93;1.67;;;;;;;;;;5057415;27;88043;-60
2023/10/15 09:07:14;;;;;;;3.30;1.80;;;;;;;;;;5057601;27;89792;-60
2023/10/15 09:09:43;;;;;;;1.43;1.10;;;;;;;;;;5057987;27;87655;-60
2023/10/15 09:12:13;;;;;;;3.53;1.63;;;;;;;;;;5056798;27;89632;-60
2023/10/15 09:14:43;;;;;;;1.87;1.43;;;;;;;;;;5056601;27;89162;-59
2023/10/15 09:17:11;;;;;;;3.73;2.00;;;;;;;;;;5057869;27;88858;-60
2023/10/15 09:19:40;;;;;;;2.47;1.70;;;;;;;;;;5055774;27;87612;-59
2023/10/15 09:22:14;;;;;;;3.80;1.87;;;;;;;;;;5057440;27;87953;-59
2023/10/15 09:24:42;;;;;;;3.47;2.17;;;;;;;;;;5056329;27;88914;-59
2023/10/15 09:27:13;;;;;;;5.00;2.20;;;;;;;;;;5057724;27;87793;-59
2023/10/15 09:29:43;;;;;;;4.80;2.47;;;;;;;;;;5055596;27;87955;-59
2023/10/15 09:32:11;;;;;;;4.97;2.43;;;;;;;;;;5050974;27;87577;-55
2023/10/15 09:34:39;;;;;;;2.60;1.80;;;;;;;;;;5055085;27;88050;-56
2023/10/15 09:37:09;;;;;;;5.07;2.37;;;;;;;;;;5056891;27;88270;-57
2023/10/15 09:39:38;;;;;;;5.37;2.90;;;;;;;;;;5055142;27;87521;-56
2023/10/15 09:42:09;;;;;;;4.60;3.20;;;;;;;;;;5057214;27;88535;-57
2023/10/15 09:44:39;;;;;;;4.07;2.30;;;;;;;;;;5054724;27;88452;-56
2023/10/15 09:47:08;;;;;;;4.33;2.70;;;;;;;;;;5057795;27;87450;-57
2023/10/15 09:49:36;;;;;;;4.73;3.27;;;;;;;;;;5057747;27;87731;-57
2023/10/15 09:52:05;;;;;;;6.93;3.67;;;;;;;;;;5057432;27;89433;-57
2023/10/15 09:54:34;;;;;;;5.83;3.20;;;;;;;;;;5057248;27;88990;-57
2023/10/15 09:57:03;;;;;;;4.87;3.63;;;;;;;;;;5056883;27;89716;-56
2023/10/15 09:59:31;;;;;;;8.27;3.90;;;;;;;;;;5057972;27;87522;-56
2023/10/15 10:02:05;;;;;;;5.40;3.23;;;;;;;;;;5057030;27;89537;-56
2023/10/15 10:04:42;;;;;;;4.97;3.50;;;;;;;;;;5057519;27;89220;-57
2023/10/15 10:07:18;;;;;;;7.23;3.30;;;;;;;;;;5057039;27;88830;-56
2023/10/15 10:09:59;;;;;;;9.57;4.47;;;;;;;;;;5058353;27;87874;-56
2023/10/15 10:12:29;;;;;;;7.73;3.80;;;;;;;;;;5057869;27;89230;-57
2023/10/15 10:15:22;;;;;;;7.20;3.93;;;;;;;;;;5057272;27;89032;-56
2023/10/15 10:17:52;;;;;;;7.70;4.40;;;;;;;;;;5038452;27;89035;-57
2023/10/15 10:20:21;;;;;;;8.63;4.30;;;;;;;;;;5052978;27;87993;-56
2023/10/15 10:22:56;;;;;;;4.17;3.50;;;;;;;;;;5053837;27;88668;-56
2023/10/15 10:25:31;;;;;;;8.83;4.40;;;;;;;;;;5040450;27;89039;-58
2023/10/15 10:28:10;;;;;;;10.87;5.43;;;;;;;;;;5046383;27;87730;-59
2023/10/15 10:30:55;;;;;;;7.43;4.53;;;;;;;;;;5049281;27;87566;-59
2023/10/15 10:33:44;;;;;;;6.07;3.83;;;;;;;;;;5050949;27;89588;-58
2023/10/15 10:36:15;;;;;;;7.67;4.47;;;;;;;;;;5050775;27;88314;-58
2023/10/15 10:38:43;;;;;;;5.03;4.17;;;;;;;;;;5052469;27;87748;-57
2023/10/15 10:41:15;;;;;;;7.40;4.07;;;;;;;;;;5057103;27;88922;-57
2023/10/15 10:43:46;;;;;;;4.53;3.50;;;;;;;;;;5054274;27;89068;-58
2023/10/15 10:46:21;;;;;;;6.83;3.83;;;;;;;;;;5056233;27;88055;-57
2023/10/15 10:49:03;;;;;;;13.00;4.77;;;;;;;;;;5056474;27;88527;-58
2023/10/15 10:51:33;;;;;;;6.57;4.17;;;;;;;;;;5056439;27;87583;-57
2023/10/15 10:54:25;;;;;;;6.03;4.37;;;;;;;;;;5052415;27;88763;-56
2023/10/15 10:56:58;;;;;;;8.50;4.03;;;;;;;;;;5053955;27;89027;-57
2023/10/15 10:59:27;;;;;;;7.03;3.93;;;;;;;;;;5055031;27;89107;-56
2023/10/15 11:01:55;;;;;;;9.87;5.20;;;;;;;;;;5055979;27;87855;-56
2023/10/15 11:04:25;;;;;;;7.23;4.77;;;;;;;;;;5053796;27;90083;-55
2023/10/15 11:06:55;;;;;;;6.77;4.47;;;;;;;;;;5056223;27;88821;-56
2023/10/15 11:09:23;;;;;;;9.53;5.50;;;;;;;;;;5055465;27;87511;-56
2023/10/15 11:11:52;;;;;;;6.73;4.70;;;;;;;;;;5057186;27;88174;-56
2023/10/15 11:14:23;;;;;;;6.60;4.30;;;;;;;;;;5055658;27;89708;-56
2023/10/15 11:16:52;;;;;;;8.80;5.50;;;;;;;;;;5058100;27;88317;-56
2023/10/15 11:19:21;;;;;;;8.57;4.90;;;;;;;;;;5055950;27;88999;-55
2023/10/15 11:21:50;;;;;;;8.83;5.17;;;;;;;;;;5062529;27;87640;-57
2023/10/15 11:24:19;;;;;;;7.07;4.90;;;;;;;;;;5063054;27;88687;-57
2023/10/15 11:26:48;;;;;;;5.37;4.27;;;;;;;;;;5062952;27;89049;-58
2023/10/15 11:29:18;;;;;;;6.57;4.07;;;;;;;;;;5059693;27;87544;-57
2023/10/15 11:31:48;;;;;;;9.27;4.20;;;;;;;;;;5061771;27;87555;-57
2023/10/15 11:34:19;;;;;;;7.97;4.50;;;;;;;;;;5061219;27;89730;-57
2023/10/15 11:36:49;;;;;;;8.90;4.10;;;;;;;;;;5061042;27;90078;-57
2023/10/15 11:39:25;;;;;;;10.83;4.30;;;;;;;;;;5062086;27;89774;-57
2023/10/15 11:41:56;;;;;;;6.07;4.17;;;;;;;;;;5060430;27;87348;-58
2023/10/15 11:44:30;;;;;;;6.43;3.63;;;;;;;;;;5060205;27;89853;-57
2023/10/15 11:47:00;;;;;;;9.53;3.97;;;;;;;;;;5060132;27;87746;-57
2023/10/15 11:49:30;;;;;;;5.47;4.73;;;;;;;;;;5061142;27;88828;-56
2023/10/15 11:52:05;;;;;;;7.77;4.53;;;;;;;;;;5059473;27;87569;-56
2023/10/15 11:54:35;;;;;;;5.93;4.20;;;;;;;;;;5059239;27;89661;-57
2023/10/15 11:57:05;;;;;;;6.27;4.07;;;;;;;;;;5061367;27;87987;-57
2023/10/15 11:59:38;;;;;;;10.17;4.30;;;;;;;;;;5061582;27;88775;-56
2023/10/15 12:02:10;;;;;;;9.97;4.70;;;;;;;;;;5055892;27;89226;-56
2023/10/15 12:04:39;;;;;;;8.00;4.37;;;;;;;;;;5057977;27;89791;-57
2023/10/15 12:07:15;;;;;;;7.57;4.27;;;;;;;;;;5060517;27;88228;-56
2023/10/15 12:09:44;;;;;;;8.13;4.40;;;;;;;;;;5061294;27;87889;-57
2023/10/15 12:12:14;;;;;;;10.13;4.53;;;;;;;;;;5061982;27;87546;-56
2023/10/15 12:14:42;;;;;;;8.40;4.40;;;;;;;;;;5062828;27;88501;-57
2023/10/15 12:17:12;;;;;;;2.47;1.70;;;;;;;;;;5062270;27;88024;-55
2023/10/15 12:19:42;;;;;;;3.10;1.90;;;;;;;;;;5062825;27;88821;-56
2023/10/15 12:22:14;;;;;;;4.07;2.27;;;;;;;;;;5055828;27;87637;-56
2023/10/15 12:24:43;;;;;;;4.23;2.53;;;;;;;;;;5046799;27;88620;-56
2023/10/15 12:27:12;;;;;;;5.80;2.93;;;;;;;;;;5059800;27;90043;-57
2023/10/15 12:29:42;;;;;;;6.03;2.87;;;;;;;;;;5062187;27;88653;-56
2023/10/15 12:32:12;;;;;;;3.70;2.90;;;;;;;;;;5062159;27;87603;-56
2023/10/15 12:34:41;;;;;;;3.47;2.70;;;;;;;;;;5062317;27;89411;-56
2023/10/15 12:37:13;;;;;;;5.43;2.67;;;;;;;;;;5062192;27;89090;-53
2023/10/15 12:39:44;;;;;;;5.07;2.77;;;;;;;;;;5062015;27;87613;-56
2023/10/15 12:42:12;;;;;;;8.13;3.03;;;;;;;;;;5062267;27;87584;-56
2023/10/15 12:44:44;;;;;;;6.10;2.97;;;;;;;;;;5062106;27;89656;-56
2023/10/15 12:47:13;;;;;;;6.37;3.50;;;;;;;;;;5061683;27;88191;-59
2023/10/15 12:49:41;;;;;;;5.03;3.23;;;;;;;;;;5061857;27;87897;-60
2023/10/15 12:52:10;;;;;;;5.13;3.43;;;;;;;;;;5061643;27;88373;-59
2023/10/15 12:54:39;;;;;;;6.17;3.53;;;;;;;;;;5061785;27;89610;-59
2023/10/15 12:57:08;;;;;;;7.20;3.13;;;;;;;;;;5042651;27;88080;-60
2023/10/15 12:59:36;;;;;;;6.60;3.20;;;;;;;;;;5041774;28;88773;-59
2023/10/15 13:02:07;;;;;;;5.90;4.00;;;;;;;;;;5041598;28;87632;-60
2023/10/15 13:04:36;;;;;;;7.67;3.30;;;;;;;;;;5041161;28;89547;-59
2023/10/15 13:07:04;;;;;;;8.83;4.00;;;;;;;;;;5060967;27;89045;-60
2023/10/15 13:09:33;;;;;;;5.60;3.60;;;;;;;;;;5061852;27;87733;-59
2023/10/15 13:12:02;;;;;;;8.23;3.50;;;;;;;;;;5061377;27;88081;-60
2023/10/15 13:14:30;;;;;;;5.40;3.23;;;;;;;;;;5060891;27;89749;-60
2023/10/15 13:16:59;;;;;;;6.93;4.17;;;;;;;;;;5060828;27;89001;-60
2023/10/15 13:19:29;;;;;;;5.60;3.43;;;;;;;;;;5049446;27;89913;-60
2023/10/15 13:22:04;;;;;;;5.23;3.63;;;;;;;;;;5038993;28;87483;-60
2023/10/15 13:24:33;;;;;;;8.53;4.67;;;;;;;;;;5047906;27;89812;-62
2023/10/15 13:27:01;;;;;;;5.03;3.53;;;;;;;;;;5057560;27;89047;-59
2023/10/15 13:29:30;;;;;;;5.37;3.70;;;;;;;;;;5053627;27;87749;-59
2023/10/15 13:31:58;;;;;;;10.17;3.40;;;;;;;;;;5057950;27;87820;-59
2023/10/15 13:34:27;;;;;;;6.40;4.30;;;;;;;;;;5057524;27;88568;-60
2023/10/15 13:36:57;;;;;;;5.30;3.73;;;;;;;;;;5058116;27;87671;-60
2023/10/15 13:39:28;;;;;;;5.93;3.73;;;;;;;;;;5058068;27;87508;-60
2023/10/15 13:41:57;;;;;;;6.03;3.67;;;;;;;;;;5058223;27;88034;-60
2023/10/15 13:44:25;;;;;;;6.67;3.63;;;;;;;;;;5058326;27;88625;-60
2023/10/15 13:46:54;;;;;;;5.23;3.73;;;;;;;;;;5058577;27;87997;-60
2023/10/15 13:49:23;;;;;;;4.57;3.07;;;;;;;;;;5058293;27;88723;-60
2023/10/15 13:51:52;;;;;;;8.30;4.83;;;;;;;;;;5058380;27;87635;-60
2023/10/15 13:54:21;;;;;;;7.53;5.03;;;;;;;;;;5057061;27;88549;-62
2023/10/15 13:56:50;;;;;;;9.73;5.03;;;;;;;;;;5054720;27;87470;-61
2023/10/15 13:59:20;;;;;;;6.47;4.27;;;;;;;;;;5057825;27;89340;-61
2023/10/15 14:01:49;;;;;;;11.30;5.30;;;;;;;;;;5058561;27;88037;-60
2023/10/15 14:04:18;;;;;;;8.30;4.87;;;;;;;;;;5057555;27;88540;-60
2023/10/15 14:06:46;;;;;;;6.43;4.17;;;;;;;;;;5053788;27;89064;-59
2023/10/15 14:09:15;;;;;;;7.60;4.70;;;;;;;;;;5054154;27;89741;-59
2023/10/15 14:11:45;;;;;;;12.10;5.53;;;;;;;;;;5058324;27;87515;-58
2023/10/15 14:14:13;;;;;;;8.67;5.17;;;;;;;;;;5057122;27;89321;-59
2023/10/15 14:16:42;;;;;;;7.67;5.40;;;;;;;;;;5057286;27;87595;-59
2023/10/15 14:19:10;;;;;;;10.33;5.20;;;;;;;;;;5056553;27;87729;-59
2023/10/15 14:21:39;;;;;;;8.90;5.30;;;;;;;;;;5050662;27;87636;-59
2023/10/15 14:24:12;;;;;;;9.57;5.10;;;;;;;;;;5053716;27;89772;-60
2023/10/15 14:26:41;;;;;;;10.70;5.17;;;;;;;;;;5052210;27;88069;-60
2023/10/15 14:29:10;;;;;;;10.33;5.97;;;;;;;;;;5038809;27;87777;-59
2023/10/15 14:31:39;;;;;;;7.23;4.40;;;;;;;;;;5049481;27;88189;-60
2023/10/15 14:34:08;;;;;;;15.40;5.73;;;;;;;;;;5051406;27;89857;-60
2023/10/15 14:36:39;;;;;;;9.13;5.03;;;;;;;;;;5053383;27;89173;-60
2023/10/15 14:39:07;;;;;;;7.30;4.53;;;;;;;;;;5051380;27;87721;-60
2023/10/15 14:41:36;;;;;;;9.93;4.80;;;;;;;;;;5055459;27;87839;-60
2023/10/15 14:44:04;;;;;;;6.90;4.20;;;;;;;;;;5052599;27;88223;-60
2023/10/15 14:46:34;;;;;;;16.13;6.53;;;;;;;;;;5057063;27;89571;-60
2023/10/15 14:49:03;;;;;;;8.13;4.27;;;;;;;;;;5058235;27;88794;-60
2023/10/15 14:51:31;;;;;;;7.13;4.00;;;;;;;;;;5060640;27;87648;-60
2023/10/15 14:54:00;;;;;;;6.53;3.87;;;;;;;;;;5059478;27;88442;-59
2023/10/15 14:56:29;;;;;;;10.90;5.77;;;;;;;;;;5058313;27;89933;-60
2023/10/15 14:58:59;;;;;;;8.03;5.03;;;;;;;;;;5060797;27;88808;-59